Terminal Aerodrome Forecast
Issued by NWS Wilmington, OH

Current Version | Previous Version | Graphics & Text | Print | Product List | Glossary On
Versions: 1 2 3 4 5 6 7 8 9 10 11 12 13 14 15 16 17 18 19 20 21 22 23 24 25 26 27 28
000
FTUS41 KILN 201400 AAC
TAFCVG
TAF AMD
KCVG 201455Z 2015/2118 06005KT P6SM BKN025 BKN080
      TEMPO 2015/2017 BKN015
     FM201800 12006KT P6SM BKN025
     FM210100 VRB03KT 3SM BR BKN025
     FM211300 06007KT P6SM BKN025=

USA.gov is the U.S. government's official web portal to all federal, state and local government web resources and services.